Aérodrome :
LOGIN :

S'inscrire | Disclaimer

   EN    FR    IT 

 










Légende :    VFR   VFR Marginal   IFR   IFR Intensif   IFR Très Intensif
Visi : 
Plafond : 
>= 8 km
>= 3000ft
5 à 8 km
1000 à 3000 ft
1500m à 5 km
500 à 1000 ft
800 à 1500m
200 à 500 ft
< 800m
< 200 ft
Symboles :   Orages  Brouillard  Fortes neiges  Fortes précipitations  Vent > 20 kt
SIGMETs :   Divers  Orages  Givrage  Turbulence  Onde Orograph.  Cendres Volcan.






- Altitude de l'aérodrome : 353 ft
- Code IATA : CND


LRCK - Constanta

DERNIER METAR :
  • 221500Z 26015KT CAVOK 04/M02 Q1020 NOSIG

METARs EXPIRÉS :
  • 221430Z 26016KT CAVOK 05/M02 Q1020 NOSIG
  • 221400Z 26019KT CAVOK 05/M02 Q1020 NOSIG
  • 221330Z 26019KT CAVOK 06/M03 Q1020 NOSIG
  • 221300Z 26021KT CAVOK 07/M03 Q1021 NOSIG
  • 221230Z 25019KT CAVOK 08/M03 Q1021 NOSIG

TAF TAF LRCK
Valide du 22 à 12h jusqu'au 23 à 12h UTC


221100Z 2212/2312 27020KT CAVOK
PROB30
TEMPO 2212/2216 27022G32KT
BECMG 2221/2223 33015KT



MET'MAP, la Météo Aéronautique d'un coup d'oeil ! - Copyright ORBIFLY Décembre 2007 - Disclaimer

ORBIFLY MET'MAP TEAM :

Programmation & Développement : Alexandra Zaïnal
Sur une idée originale de : Baudouin d'Aumeries
Assistance à la programmation : Marc-Olivier Méhu
Soutien technique & logistique : Manuel Goepfert

Contact : metmap@orbifly.com




SOURCES & CREDITS :

   NOAA